ARDEC Weather Station

Colorado State Home Page USDA/ARS Home Page



Station:CSU - ARDEC
Location:6 mi NE Fort Collins
Elevation:5110
Longitude:105
Latitude:40.6525

ARDEC 5 Minute Data
Date Time Temp RelHum Dewpt Vapor Solar Wind Spd Wind Dir Precip 5 Soil 15 Soil Gust Spd Gust Tim Gust Dir Battery
MST °F %°Fmb ly/min mph °in. °F °F mphMST ° volts
2014-04-2011:10 68.7 33.9 39.2 8.11 1.28 7.9 181 0.00 56.5 52.2 11.4 11:07 177 11.63
2014-04-2011:05 68.3 33.1 38.2 7.83 1.28 6.4 169 0.00 56.3 52.1 10.1 11:00 210 11.62
2014-04-2011:00 68.7 34.1 39.3 8.15 1.27 8.0 212 0.00 56.1 52.1 11.7 10:56 196 11.63
2014-04-2010:55 68.7 36.3 40.9 8.71 1.26 7.4 199 0.00 55.9 52.0 10.1 10:51 199 11.62
2014-04-2010:50 68.8 35.7 40.6 8.58 1.25 6.5 211 0.00 55.7 51.9 9.8 10:48 184 11.62
2014-04-2010:45 67.9 36.2 40.1 8.41 1.25 6.2 193 0.00 55.5 51.9 10.2 10:41 157 11.62
2014-04-2010:40 67.5 38.2 41.2 8.78 1.23 6.4 181 0.00 55.3 51.9 10.0 10:38 182 11.61
2014-04-2010:35 67.2 38.2 40.9 8.68 1.21 6.9 187 0.00 55.2 51.8 10.7 10:30 176 11.62
2014-04-2010:30 66.8 39.8 41.6 8.93 1.20 9.1 173 0.00 55.0 51.7 11.3 10:25 165 11.61
2014-04-2010:25 66.4 40.4 41.6 8.93 1.18 8.5 162 0.00 54.8 51.7 11.2 10:20 168 11.62
2014-04-2010:20 66.0 42.3 42.5 9.24 1.17 9.0 178 0.00 54.7 51.7 12.2 10:20 190 11.61
2014-04-2010:15 65.6 40.8 41.1 8.78 1.16 6.5 167 0.00 54.5 51.6 11.7 10:15 174 11.61
2014-04-2010:10 65.6 43.9 43.0 9.43 1.14 9.1 175 0.00 54.3 51.6 12.5 10:06 166 11.61
2014-04-2010:05 65.4 44.1 43.0 9.42 1.13 9.5 170 0.00 54.1 51.5 12.1 10:00 185 11.61
2014-04-2010:00 65.4 44.8 43.4 9.60 1.12 8.6 167 0.00 53.9 51.5 10.7 09:57 188 11.61
2014-04-2009:55 65.4 44.6 43.3 9.52 1.11 7.7 162 0.00 53.7 51.5 11.4 09:51 185 11.60
2014-04-2009:50 64.8 46.2 43.7 9.68 1.09 6.9 169 0.00 53.6 51.5 10.0 09:47 173 11.61
2014-04-2009:45 64.7 47.8 44.4 9.95 1.08 7.5 181 0.00 53.4 51.4 10.2 09:44 180 11.61
2014-04-2009:40 64.4 49.7 45.2 10.25 1.06 7.8 179 0.00 53.2 51.4 9.7 09:35 186 11.60
2014-04-2009:35 64.3 47.9 44.2 9.86 1.04 7.1 171 0.00 53.0 51.4 9.1 09:33 187 11.60
2014-04-2009:30 64.7 46.6 43.8 9.70 1.02 5.8 195 0.00 52.8 51.4 7.4 09:29 182 11.60
2014-04-2009:25 64.4 44.3 42.2 9.15 1.00 4.5 197 0.00 52.6 51.4 8.5 09:24 185 11.59
2014-04-2009:20 64.1 42.2 40.7 8.62 0.90 3.1 219 0.00 52.4 51.4 4.9 09:16 205 11.60
2014-04-2009:15 63.5 41.4 39.6 8.28 0.87 1.9 129 0.00 52.3 51.3 4.2 09:10 170 11.60
2014-04-2009:10 63.1 45.1 41.5 8.89 0.95 3.8 195 0.00 52.1 51.3 6.2 09:07 202 11.59

 


Plots for last week.

ARDEC Home


DISCLAIMER

Authorized use of this data is limited to the academic, administrative, research Colorado State University and its Cooperative and Extension facilities. Use is NOT authorized for operational or commercial purposes. The data are provided "as is", and in no event shall the providers be liable for any damage or loss due to missing data or misinterpretation of its content.

 


Return to the CoAgMet Homepage.